createdAt,value
2018-11-20T00:00:01.313Z,16.00
2018-11-20T00:01:01.286Z,14.10
2018-11-20T00:02:01.260Z,13.90
2018-11-20T00:03:01.233Z,14.80
2018-11-20T00:04:01.215Z,15.10
2018-11-20T00:05:01.213Z,13.40
2018-11-20T00:06:01.153Z,14.40
2018-11-20T00:07:01.128Z,15.70
2018-11-20T00:08:01.114Z,13.20
2018-11-20T00:09:01.079Z,16.20
2018-11-20T00:10:01.045Z,16.10
2018-11-20T00:11:01.036Z,13.70
2018-11-20T00:12:00.994Z,14.90
2018-11-20T00:13:00.968Z,14.90
2018-11-20T00:14:00.940Z,12.30
2018-11-20T00:15:00.918Z,15.00
2018-11-20T00:16:00.894Z,13.10
2018-11-20T00:17:00.859Z,14.50
2018-11-20T00:18:00.832Z,14.60
2018-11-20T00:19:00.816Z,19.50
2018-11-20T00:20:00.782Z,17.90
2018-11-20T00:21:00.752Z,13.90
2018-11-20T00:22:00.724Z,13.20
2018-11-20T00:23:00.701Z,15.20
2018-11-20T00:24:00.672Z,13.50
2018-11-20T00:25:00.642Z,14.40
2018-11-20T00:26:00.617Z,16.60
2018-11-20T00:27:00.589Z,13.70
2018-11-20T00:28:00.567Z,19.10
2018-11-20T00:29:00.534Z,17.80
2018-11-20T00:30:00.509Z,16.00
2018-11-20T00:31:00.501Z,16.10
2018-11-20T00:32:00.473Z,17.80
2018-11-20T00:33:00.435Z,16.00
2018-11-20T00:34:00.398Z,14.60
2018-11-20T00:35:00.375Z,13.40
2018-11-20T00:36:00.345Z,14.40
2018-11-20T00:37:00.319Z,19.10
2018-11-20T00:38:00.290Z,16.00
2018-11-20T00:39:00.264Z,17.70
2018-11-20T00:40:00.238Z,16.90
2018-11-20T00:41:00.211Z,17.10
2018-11-20T00:42:00.197Z,17.40
2018-11-20T00:43:00.157Z,14.70
2018-11-20T00:44:00.132Z,15.80
2018-11-20T00:45:00.100Z,15.40
2018-11-20T00:46:00.080Z,14.40
2018-11-20T00:47:00.063Z,17.20
2018-11-20T00:48:00.019Z,15.90
2018-11-20T00:48:59.992Z,14.60
2018-11-20T00:49:59.965Z,20.40
2018-11-20T00:50:59.944Z,19.70
2018-11-20T00:51:59.919Z,17.10
2018-11-20T00:52:59.882Z,18.50
2018-11-20T00:53:59.856Z,17.60
2018-11-20T00:54:59.835Z,16.00
2018-11-20T00:55:59.810Z,15.70
2018-11-20T00:56:59.777Z,16.80
2018-11-20T00:57:59.763Z,14.90
2018-11-20T00:58:59.731Z,16.60
2018-11-20T00:59:59.694Z,17.20
2018-11-20T01:00:59.672Z,19.00
2018-11-20T01:01:59.649Z,19.80
2018-11-20T01:02:59.613Z,17.90
2018-11-20T01:03:59.587Z,18.40
2018-11-20T01:04:59.559Z,20.10
2018-11-20T01:05:59.538Z,17.40
2018-11-20T01:06:59.507Z,18.90
2018-11-20T01:07:59.480Z,17.00
2018-11-20T01:08:59.459Z,18.30
2018-11-20T01:09:59.425Z,18.70
2018-11-20T01:10:59.396Z,15.60
2018-11-20T01:11:59.371Z,21.30
2018-11-20T01:12:59.348Z,18.40
2018-11-20T01:13:59.316Z,18.10
2018-11-20T01:14:59.293Z,17.20
2018-11-20T01:15:59.265Z,17.00
2018-11-20T01:16:59.243Z,17.70
2018-11-20T01:17:59.208Z,17.50
2018-11-20T01:18:59.185Z,18.40
2018-11-20T01:19:59.158Z,21.40
2018-11-20T01:20:59.129Z,18.50
2018-11-20T01:21:59.101Z,17.90
2018-11-20T01:22:59.073Z,17.20
2018-11-20T01:23:59.051Z,18.30
2018-11-20T01:24:59.019Z,16.50
2018-11-20T01:25:59.002Z,16.90
2018-11-20T01:26:58.966Z,17.70
2018-11-20T01:27:58.950Z,18.70
2018-11-20T01:28:58.911Z,18.90
2018-11-20T01:29:58.886Z,17.50
2018-11-20T01:30:58.860Z,17.30
2018-11-20T01:31:58.833Z,17.10
2018-11-20T01:32:58.805Z,14.10
2018-11-20T01:33:58.779Z,16.60
2018-11-20T01:34:58.761Z,18.10
2018-11-20T01:35:58.726Z,16.80
2018-11-20T01:36:58.699Z,17.40
2018-11-20T01:37:58.673Z,17.20
2018-11-20T01:38:58.645Z,17.30
2018-11-20T01:39:58.618Z,17.90
2018-11-20T01:40:58.599Z,16.20
2018-11-20T01:41:58.564Z,16.30
2018-11-20T01:42:58.538Z,14.70
2018-11-20T01:43:58.513Z,14.90
2018-11-20T01:44:58.485Z,15.70
2018-11-20T01:45:58.458Z,16.10
2018-11-20T01:46:58.438Z,15.60
2018-11-20T01:47:58.405Z,13.20
2018-11-20T01:48:58.387Z,15.10
2018-11-20T01:49:58.360Z,16.60
2018-11-20T01:50:58.323Z,15.00
2018-11-20T01:51:58.301Z,15.20
2018-11-20T01:52:58.269Z,16.60
2018-11-20T01:53:58.242Z,13.60
2018-11-20T01:54:58.218Z,13.70
2018-11-20T01:55:58.189Z,15.40
2018-11-20T01:56:58.161Z,15.90
2018-11-20T01:57:58.134Z,13.80
2018-11-20T01:58:58.112Z,15.90
2018-11-20T01:59:58.091Z,17.40
2018-11-20T02:00:58.056Z,13.70
2018-11-20T02:01:58.079Z,15.80
2018-11-20T02:02:58.002Z,14.80
2018-11-20T02:03:57.988Z,15.50
2018-11-20T02:04:57.957Z,16.60
2018-11-20T02:05:57.926Z,15.00
2018-11-20T02:06:57.895Z,15.20
2018-11-20T02:07:57.867Z,17.50
2018-11-20T02:08:57.840Z,15.80
2018-11-20T02:09:57.814Z,15.70
2018-11-20T02:10:57.795Z,18.10
2018-11-20T02:11:57.771Z,16.50
2018-11-20T02:12:57.736Z,17.10
2018-11-20T02:13:57.706Z,13.50
2018-11-20T02:14:57.682Z,18.00
2018-11-20T02:15:57.655Z,16.80
2018-11-20T02:16:57.630Z,13.40
2018-11-20T02:17:57.600Z,17.00
2018-11-20T02:18:57.575Z,17.50
2018-11-20T02:19:57.546Z,17.30
2018-11-20T02:20:57.519Z,17.00
2018-11-20T02:21:57.492Z,17.70
2018-11-20T02:22:57.470Z,15.00
2018-11-20T02:23:57.439Z,16.30
2018-11-20T02:24:57.421Z,15.20
2018-11-20T02:25:57.436Z,15.50
2018-11-20T02:26:57.363Z,13.80
2018-11-20T02:27:57.349Z,18.20
2018-11-20T02:28:57.307Z,16.20
2018-11-20T02:29:57.286Z,16.10
2018-11-20T02:30:57.262Z,16.20
2018-11-20T02:31:57.229Z,15.80
2018-11-20T02:32:57.202Z,15.10
2018-11-20T02:33:57.174Z,14.70
2018-11-20T02:34:57.148Z,16.10
2018-11-20T02:35:57.125Z,14.70
2018-11-20T02:36:57.093Z,15.50
2018-11-20T02:37:57.065Z,16.70
2018-11-20T02:38:57.037Z,17.10
2018-11-20T02:39:57.022Z,18.20
2018-11-20T02:40:56.984Z,13.80
2018-11-20T02:41:56.974Z,15.10
2018-11-20T02:42:56.934Z,17.10
2018-11-20T02:43:56.906Z,14.70
2018-11-20T02:44:56.876Z,15.80
2018-11-20T02:45:56.857Z,14.50
2018-11-20T02:46:56.822Z,14.30
2018-11-20T02:47:56.800Z,16.60
2018-11-20T02:48:56.768Z,18.50
2018-11-20T02:49:56.796Z,14.60
2018-11-20T02:50:56.714Z,17.80
2018-11-20T02:51:56.689Z,16.20
2018-11-20T02:52:56.669Z,17.80
2018-11-20T02:53:56.634Z,16.20
2018-11-20T02:54:56.607Z,15.80
2018-11-20T02:55:56.580Z,13.10
2018-11-20T02:56:56.563Z,14.10
2018-11-20T02:57:56.528Z,16.40
2018-11-20T02:58:56.499Z,16.60
2018-11-20T02:59:56.475Z,16.10
2018-11-20T03:00:56.445Z,15.80
2018-11-20T03:01:56.419Z,15.90
2018-11-20T03:02:56.394Z,15.00
2018-11-20T03:03:56.367Z,16.50
2018-11-20T03:04:56.337Z,14.80
2018-11-20T03:05:56.469Z,15.80
2018-11-20T03:06:56.294Z,12.90
2018-11-20T03:07:56.257Z,16.20
2018-11-20T03:08:56.280Z,16.20
2018-11-20T03:09:56.203Z,16.40
2018-11-20T03:10:56.190Z,17.00
2018-11-20T03:11:56.155Z,18.60
2018-11-20T03:12:56.125Z,17.20
2018-11-20T03:13:56.096Z,17.20
2018-11-20T03:14:56.070Z,15.20
2018-11-20T03:15:56.050Z,13.40
2018-11-20T03:16:56.016Z,17.20
2018-11-20T03:17:55.991Z,16.80
2018-11-20T03:18:55.962Z,12.70
2018-11-20T03:19:55.988Z,14.90
2018-11-20T03:20:55.918Z,15.00
2018-11-20T03:21:55.887Z,14.50
2018-11-20T03:22:55.856Z,14.50
2018-11-20T03:23:55.837Z,14.80
2018-11-20T03:24:55.807Z,14.80
2018-11-20T03:25:55.778Z,14.10
2018-11-20T03:26:55.845Z,14.60
2018-11-20T03:27:55.721Z,14.50
2018-11-20T03:28:55.691Z,13.30
2018-11-20T03:29:55.667Z,15.40
2018-11-20T03:30:55.647Z,15.60
2018-11-20T03:31:55.612Z,17.20
2018-11-20T03:32:55.585Z,17.20
2018-11-20T03:33:55.558Z,16.80
2018-11-20T03:34:55.532Z,14.90
2018-11-20T03:35:55.521Z,16.30
2018-11-20T03:36:55.477Z,16.40
2018-11-20T03:37:55.451Z,17.00
2018-11-20T03:38:55.423Z,16.20
2018-11-20T03:39:55.405Z,16.90
2018-11-20T03:40:55.375Z,16.50
2018-11-20T03:41:55.343Z,16.60
2018-11-20T03:42:55.320Z,17.00
2018-11-20T03:43:55.339Z,17.40
2018-11-20T03:44:55.262Z,17.90
2018-11-20T03:45:55.235Z,17.80
2018-11-20T03:46:55.208Z,16.40
2018-11-20T03:47:55.349Z,17.30
2018-11-20T03:48:55.153Z,18.30
2018-11-20T03:49:55.127Z,17.40
2018-11-20T03:50:55.151Z,15.10
2018-11-20T03:51:55.074Z,19.10
2018-11-20T03:52:55.047Z,16.00
2018-11-20T03:53:55.021Z,18.00
2018-11-20T03:54:54.996Z,18.30
2018-11-20T03:55:54.968Z,17.90
2018-11-20T03:56:54.939Z,19.50
2018-11-20T03:57:54.913Z,19.40
2018-11-20T03:58:54.889Z,13.20
2018-11-20T03:59:54.865Z,18.40
2018-11-20T04:00:54.832Z,20.40
2018-11-20T04:01:54.806Z,18.00
2018-11-20T04:02:54.785Z,19.30
2018-11-20T04:03:54.755Z,19.10
2018-11-20T04:04:54.738Z,20.80
2018-11-20T04:05:54.697Z,19.90
2018-11-20T04:06:54.670Z,19.60
2018-11-20T04:07:54.649Z,18.60
2018-11-20T04:08:54.617Z,17.20
2018-11-20T04:09:54.592Z,14.90
2018-11-20T04:10:54.570Z,18.40
2018-11-20T04:11:54.537Z,20.60
2018-11-20T04:12:54.511Z,16.90
2018-11-20T04:13:54.530Z,20.20
2018-11-20T04:14:54.458Z,18.80
2018-11-20T04:15:54.441Z,20.00
2018-11-20T04:16:54.412Z,15.30
2018-11-20T04:17:54.463Z,18.20
2018-11-20T04:18:54.351Z,18.90
2018-11-20T04:19:54.328Z,20.10
2018-11-20T04:20:54.295Z,19.50
2018-11-20T04:21:54.273Z,16.60
2018-11-20T04:22:54.242Z,19.80
2018-11-20T04:23:54.217Z,18.20
2018-11-20T04:24:54.191Z,16.90
2018-11-20T04:25:54.165Z,19.20
2018-11-20T04:26:54.135Z,17.30
2018-11-20T04:27:54.117Z,20.40
2018-11-20T04:28:54.087Z,20.50
2018-11-20T04:29:54.055Z,17.90
2018-11-20T04:30:54.028Z,16.70
2018-11-20T04:31:54.004Z,18.20
2018-11-20T04:32:53.975Z,19.60
2018-11-20T04:33:53.948Z,17.00
2018-11-20T04:34:53.921Z,18.10
2018-11-20T04:35:53.901Z,19.60
2018-11-20T04:36:53.866Z,18.80
2018-11-20T04:37:53.840Z,19.60
2018-11-20T04:38:53.813Z,17.90
2018-11-20T04:39:53.787Z,18.60
2018-11-20T04:40:53.760Z,18.00
2018-11-20T04:41:53.739Z,20.00
2018-11-20T04:42:53.706Z,17.90
2018-11-20T04:43:53.688Z,17.90
2018-11-20T04:44:53.652Z,15.50
2018-11-20T04:45:53.628Z,14.40
2018-11-20T04:46:53.600Z,15.70
2018-11-20T04:47:53.572Z,18.70
2018-11-20T04:48:53.546Z,17.60
2018-11-20T04:49:53.580Z,16.60
2018-11-20T04:50:53.492Z,16.90
2018-11-20T04:51:53.468Z,17.80
2018-11-20T04:52:53.437Z,17.80
2018-11-20T04:53:53.411Z,15.50
2018-11-20T04:54:53.388Z,18.50
2018-11-20T04:55:53.358Z,17.60
2018-11-20T04:56:53.329Z,18.00
2018-11-20T04:57:53.307Z,18.90
2018-11-20T04:58:53.287Z,19.00
2018-11-20T04:59:53.251Z,17.40
2018-11-20T05:00:53.230Z,18.30
2018-11-20T05:01:53.202Z,18.20
2018-11-20T05:02:53.170Z,16.80
2018-11-20T05:03:53.144Z,18.60
2018-11-20T05:04:53.116Z,21.00
2018-11-20T05:05:53.148Z,20.40
2018-11-20T05:06:53.188Z,18.50
2018-11-20T05:07:53.037Z,15.10
2018-11-20T05:08:53.013Z,16.00
2018-11-20T05:09:52.983Z,17.20
2018-11-20T05:10:52.956Z,18.70
2018-11-20T05:11:52.930Z,21.50
2018-11-20T05:12:52.902Z,20.80
2018-11-20T05:13:52.875Z,19.20
2018-11-20T05:14:52.849Z,22.30
2018-11-20T05:15:52.838Z,18.20
2018-11-20T05:16:52.795Z,17.10
2018-11-20T05:17:52.768Z,20.80
2018-11-20T05:18:52.740Z,19.80
2018-11-20T05:19:52.716Z,19.80
2018-11-20T05:20:52.687Z,18.70
2018-11-20T05:21:52.662Z,20.10
2018-11-20T05:22:52.634Z,19.10
2018-11-20T05:23:52.607Z,19.60
2018-11-20T05:24:52.584Z,18.20
2018-11-20T05:25:52.554Z,22.60
2018-11-20T05:26:52.535Z,21.10
2018-11-20T05:27:52.512Z,19.70
2018-11-20T05:28:52.473Z,21.40
2018-11-20T05:29:52.447Z,20.20
2018-11-20T05:30:52.436Z,22.50
2018-11-20T05:31:52.393Z,22.30
2018-11-20T05:32:52.365Z,25.40
2018-11-20T05:33:52.339Z,22.80
2018-11-20T05:34:52.313Z,24.40
2018-11-20T05:35:52.285Z,24.20
2018-11-20T05:36:52.260Z,26.60
2018-11-20T05:37:52.238Z,23.60
2018-11-20T05:38:52.216Z,24.00
2018-11-20T05:39:52.186Z,24.40
2018-11-20T05:40:52.150Z,21.50
2018-11-20T05:41:52.127Z,19.50
2018-11-20T05:42:52.098Z,25.90
2018-11-20T05:43:52.087Z,23.50
2018-11-20T05:44:52.045Z,27.20
2018-11-20T05:45:52.017Z,21.50
2018-11-20T05:46:52.057Z,23.20
2018-11-20T05:47:51.965Z,19.00
2018-11-20T05:48:51.937Z,23.40
2018-11-20T05:49:51.913Z,24.10
2018-11-20T05:50:51.884Z,25.90
2018-11-20T05:51:51.856Z,27.20
2018-11-20T05:52:51.834Z,26.10
2018-11-20T05:53:51.805Z,27.20
2018-11-20T05:54:51.776Z,28.20
2018-11-20T05:55:51.750Z,23.80
2018-11-20T05:56:51.721Z,25.80
2018-11-20T05:57:51.747Z,26.00
2018-11-20T05:58:51.676Z,27.20
2018-11-20T05:59:51.642Z,27.00
2018-11-20T06:00:51.623Z,26.70
2018-11-20T06:01:51.591Z,28.20
2018-11-20T06:02:51.562Z,28.50
2018-11-20T06:03:51.544Z,27.70
2018-11-20T06:04:51.507Z,26.40
2018-11-20T06:05:51.521Z,23.60
2018-11-20T06:06:51.553Z,26.00
2018-11-20T06:07:51.429Z,26.80
2018-11-20T06:08:51.409Z,29.80
2018-11-20T06:09:51.374Z,30.80
2018-11-20T06:10:51.347Z,27.40
2018-11-20T06:11:51.323Z,28.90
2018-11-20T06:12:51.418Z,30.40
2018-11-20T06:13:51.269Z,28.40
2018-11-20T06:14:51.242Z,31.80
2018-11-20T06:15:51.214Z,27.90
2018-11-20T06:16:51.189Z,29.20
2018-11-20T06:17:51.163Z,28.90
2018-11-20T06:18:51.186Z,27.70
2018-11-20T06:19:51.110Z,27.20
2018-11-20T06:20:51.082Z,27.50
2018-11-20T06:21:51.055Z,25.10
2018-11-20T06:22:51.036Z,28.90
2018-11-20T06:23:51.002Z,31.60
2018-11-20T06:24:50.974Z,32.00
2018-11-20T06:25:50.948Z,29.50
2018-11-20T06:26:50.924Z,34.20
2018-11-20T06:27:50.894Z,34.30
2018-11-20T06:28:50.993Z,34.30
2018-11-20T06:29:50.841Z,32.90
2018-11-20T06:30:50.836Z,34.30
2018-11-20T06:31:50.788Z,33.30
2018-11-20T06:32:50.760Z,35.00
2018-11-20T06:33:50.738Z,34.20
2018-11-20T06:34:50.778Z,37.40
2018-11-20T06:35:50.682Z,39.70
2018-11-20T06:36:50.656Z,35.40
2018-11-20T06:37:50.626Z,34.50
2018-11-20T06:38:50.601Z,35.80
2018-11-20T06:39:50.591Z,36.80
2018-11-20T06:40:50.548Z,31.20
2018-11-20T06:41:50.521Z,35.80
2018-11-20T06:42:50.494Z,35.80
2018-11-20T06:43:50.477Z,36.50
2018-11-20T06:44:50.444Z,34.90
2018-11-20T06:45:50.514Z,35.10
2018-11-20T06:46:50.387Z,34.90
2018-11-20T06:47:50.360Z,36.50
2018-11-20T06:48:50.335Z,38.40
2018-11-20T06:49:50.306Z,35.80
2018-11-20T06:50:50.281Z,35.60
2018-11-20T06:51:50.262Z,31.00
2018-11-20T06:52:50.299Z,32.60
2018-11-20T06:53:50.211Z,34.50
2018-11-20T06:54:50.178Z,33.30
2018-11-20T06:55:50.151Z,33.10
2018-11-20T06:56:50.123Z,36.50
2018-11-20T06:57:50.093Z,33.10
2018-11-20T06:58:50.069Z,31.20
2018-11-20T06:59:50.043Z,34.10
2018-11-20T07:00:50.022Z,29.50
2018-11-20T07:01:49.991Z,31.30
2018-11-20T07:02:49.960Z,31.20
2018-11-20T07:03:49.940Z,25.00
2018-11-20T07:04:49.917Z,36.80
2018-11-20T07:05:49.884Z,35.30
2018-11-20T07:06:49.861Z,31.70
2018-11-20T07:07:49.918Z,31.10
2018-11-20T07:08:49.848Z,32.40
2018-11-20T07:09:49.781Z,33.90
2018-11-20T07:10:49.746Z,35.30
2018-11-20T07:11:49.720Z,32.80
2018-11-20T07:12:49.690Z,33.90
2018-11-20T07:13:49.773Z,33.50
2018-11-20T07:14:49.639Z,32.90
2018-11-20T07:15:49.799Z,31.30
2018-11-20T07:16:49.593Z,28.60
2018-11-20T07:17:49.577Z,32.10
2018-11-20T07:18:49.534Z,27.50
2018-11-20T07:19:49.508Z,25.70
2018-11-20T07:20:49.478Z,28.40
2018-11-20T07:21:49.453Z,28.00
2018-11-20T07:22:49.426Z,30.10
2018-11-20T07:23:49.404Z,28.70
2018-11-20T07:24:49.451Z,32.60
2018-11-20T07:25:49.346Z,26.60
2018-11-20T07:26:49.370Z,24.20
2018-11-20T07:27:49.293Z,25.00
2018-11-20T07:28:49.263Z,29.30
2018-11-20T07:29:49.371Z,30.20
2018-11-20T07:30:49.374Z,30.60
2018-11-20T07:31:49.230Z,25.60
2018-11-20T07:32:49.168Z,27.80
2018-11-20T07:33:49.131Z,31.80
2018-11-20T07:34:49.132Z,30.80
2018-11-20T07:35:49.078Z,27.50
2018-11-20T07:36:49.209Z,28.10
2018-11-20T07:37:49.024Z,31.00
2018-11-20T07:38:48.996Z,29.40
2018-11-20T07:39:48.971Z,29.50
2018-11-20T07:40:48.949Z,28.30
2018-11-20T07:41:48.917Z,31.50
2018-11-20T07:42:48.891Z,29.60
2018-11-20T07:43:49.058Z,30.00
2018-11-20T07:44:48.835Z,26.10
2018-11-20T07:45:48.808Z,24.90
2018-11-20T07:46:48.787Z,30.50
2018-11-20T07:47:48.757Z,27.90
2018-11-20T07:48:48.728Z,23.10
2018-11-20T07:49:48.707Z,29.40
2018-11-20T07:50:48.684Z,26.00
2018-11-20T07:51:48.653Z,31.40
2018-11-20T07:52:48.622Z,29.20
2018-11-20T07:53:48.604Z,28.20
2018-11-20T07:54:48.568Z,27.90
2018-11-20T07:55:48.620Z,30.70
2018-11-20T07:56:48.519Z,31.30
2018-11-20T07:57:48.488Z,28.30
2018-11-20T07:58:48.462Z,30.20
2018-11-20T07:59:48.434Z,31.30
2018-11-20T08:00:48.407Z,32.50
2018-11-20T08:01:48.379Z,32.60
2018-11-20T08:02:48.355Z,27.10
2018-11-20T08:03:48.371Z,32.40
2018-11-20T08:04:48.302Z,30.80
2018-11-20T08:05:48.282Z,33.70
2018-11-20T08:06:48.247Z,30.00
2018-11-20T08:07:48.220Z,32.50
2018-11-20T08:08:48.208Z,33.70
2018-11-20T08:09:48.166Z,37.80
2018-11-20T08:10:48.220Z,35.30
2018-11-20T08:11:48.115Z,34.20
2018-11-20T08:12:48.094Z,36.00
2018-11-20T08:13:48.066Z,32.20
2018-11-20T08:14:48.034Z,31.30
2018-11-20T08:15:48.015Z,30.50
2018-11-20T08:16:47.983Z,32.90
2018-11-20T08:17:47.954Z,31.70
2018-11-20T08:18:47.925Z,31.60
2018-11-20T08:19:47.901Z,33.70
2018-11-20T08:20:47.954Z,32.30
2018-11-20T08:21:47.847Z,30.50
2018-11-20T08:22:47.820Z,31.30
2018-11-20T08:23:47.796Z,32.60
2018-11-20T08:24:47.776Z,32.40
2018-11-20T08:25:47.831Z,30.90
2018-11-20T08:26:47.724Z,37.40
2018-11-20T08:27:47.687Z,33.90
2018-11-20T08:28:47.671Z,35.70
2018-11-20T08:29:47.635Z,30.10
2018-11-20T08:30:47.637Z,31.60
2018-11-20T08:31:47.585Z,25.80
2018-11-20T08:32:47.554Z,32.30
2018-11-20T08:33:47.636Z,32.50
2018-11-20T08:34:47.528Z,36.30
2018-11-20T08:35:47.476Z,30.90
2018-11-20T08:36:47.450Z,34.90
2018-11-20T08:37:47.433Z,32.40
2018-11-20T08:38:47.404Z,34.50
2018-11-20T08:39:47.385Z,30.90
2018-11-20T08:40:47.341Z,34.70
2018-11-20T08:41:47.319Z,27.10
2018-11-20T08:42:47.297Z,30.30
2018-11-20T08:43:47.269Z,30.20
2018-11-20T08:44:47.236Z,31.70
2018-11-20T08:45:47.211Z,34.90
2018-11-20T08:46:47.184Z,30.40
2018-11-20T08:47:47.200Z,29.30
2018-11-20T08:48:47.142Z,33.00
2018-11-20T08:49:47.106Z,32.20
2018-11-20T08:50:47.077Z,30.10
2018-11-20T08:51:47.057Z,27.10
2018-11-20T08:52:47.079Z,31.80
2018-11-20T08:53:47.094Z,25.80
2018-11-20T08:54:46.970Z,29.20
2018-11-20T08:55:46.946Z,31.70
2018-11-20T08:56:46.917Z,31.50
2018-11-20T08:57:46.890Z,34.80
2018-11-20T08:58:46.866Z,28.60
2018-11-20T08:59:46.838Z,34.20
2018-11-20T09:00:46.818Z,30.30
2018-11-20T09:01:46.782Z,32.10
2018-11-20T09:02:46.860Z,29.60
2018-11-20T09:03:46.737Z,34.00
2018-11-20T09:04:46.702Z,33.20
2018-11-20T09:05:46.675Z,25.20
2018-11-20T09:06:46.663Z,27.10
2018-11-20T09:07:46.624Z,31.80
2018-11-20T09:08:46.596Z,30.50
2018-11-20T09:09:46.641Z,32.10
2018-11-20T09:10:46.555Z,31.20
2018-11-20T09:11:46.518Z,34.70
2018-11-20T09:12:46.489Z,26.10
2018-11-20T09:13:46.463Z,35.00
2018-11-20T09:14:46.436Z,27.50
2018-11-20T09:15:46.412Z,27.10
2018-11-20T09:16:46.382Z,29.10
2018-11-20T09:17:46.393Z,28.80
2018-11-20T09:18:46.334Z,33.70
2018-11-20T09:19:46.318Z,31.90
2018-11-20T09:20:46.276Z,28.70
2018-11-20T09:21:46.255Z,30.20
2018-11-20T09:22:46.222Z,30.10
2018-11-20T09:23:46.197Z,29.60
2018-11-20T09:24:46.168Z,31.40
2018-11-20T09:25:46.228Z,30.00
2018-11-20T09:26:46.114Z,33.60
2018-11-20T09:27:46.146Z,27.90
2018-11-20T09:28:46.060Z,30.30
2018-11-20T09:29:46.040Z,33.90
2018-11-20T09:30:46.011Z,28.10
2018-11-20T09:31:45.987Z,31.70
2018-11-20T09:32:45.968Z,28.70
2018-11-20T09:33:45.928Z,29.40
2018-11-20T09:34:45.983Z,28.60
2018-11-20T09:35:45.993Z,28.10
2018-11-20T09:36:45.847Z,31.70
2018-11-20T09:37:45.839Z,31.00
2018-11-20T09:38:45.796Z,29.70
2018-11-20T09:39:45.766Z,28.90
2018-11-20T09:40:45.741Z,23.80
2018-11-20T09:41:45.714Z,24.80
2018-11-20T09:42:45.686Z,30.20
2018-11-20T09:43:45.670Z,31.80
2018-11-20T09:44:45.637Z,25.70
2018-11-20T09:45:45.625Z,27.50
2018-11-20T09:46:45.604Z,29.80
2018-11-20T09:47:45.551Z,28.90
2018-11-20T09:48:45.527Z,31.10
2018-11-20T09:49:45.506Z,30.20
2018-11-20T09:50:45.479Z,32.40
2018-11-20T09:51:45.449Z,30.10
2018-11-20T09:52:45.501Z,32.80
2018-11-20T09:53:45.391Z,30.90
2018-11-20T09:54:45.364Z,26.10
2018-11-20T09:55:45.338Z,32.20
2018-11-20T09:56:45.315Z,35.60
2018-11-20T09:57:45.284Z,32.10
2018-11-20T09:58:45.258Z,30.40
2018-11-20T09:59:45.261Z,29.60
2018-11-20T10:00:45.209Z,29.80
2018-11-20T10:01:45.181Z,27.90
2018-11-20T10:02:45.154Z,33.10
2018-11-20T10:03:45.227Z,33.30
2018-11-20T10:04:45.100Z,31.60
2018-11-20T10:05:45.093Z,33.40
2018-11-20T10:06:45.059Z,28.70
2018-11-20T10:07:45.021Z,33.10
2018-11-20T10:08:45.012Z,25.70
2018-11-20T10:09:44.965Z,30.20
2018-11-20T10:10:44.942Z,31.90
2018-11-20T10:11:44.912Z,31.30
2018-11-20T10:12:44.899Z,29.20
2018-11-20T10:13:44.872Z,30.30
2018-11-20T10:14:44.954Z,29.50
2018-11-20T10:15:44.815Z,30.50
2018-11-20T10:16:44.780Z,30.30
2018-11-20T10:17:44.760Z,27.90
2018-11-20T10:18:44.728Z,31.00
2018-11-20T10:19:44.698Z,32.60
2018-11-20T10:20:44.713Z,29.30
2018-11-20T10:21:44.664Z,27.10
2018-11-20T10:22:44.626Z,29.20
2018-11-20T10:23:44.629Z,29.40
2018-11-20T10:24:44.651Z,30.10
2018-11-20T10:25:44.662Z,28.30
2018-11-20T10:26:44.531Z,31.10
2018-11-20T10:27:44.488Z,31.40
2018-11-20T10:28:44.464Z,30.90
2018-11-20T10:29:44.438Z,24.20
2018-11-20T10:30:44.413Z,27.80
2018-11-20T10:31:44.381Z,32.60
2018-11-20T10:32:44.356Z,29.30
2018-11-20T10:33:44.329Z,28.90
2018-11-20T10:34:44.367Z,32.50
2018-11-20T10:35:44.284Z,32.30
2018-11-20T10:36:44.255Z,31.90
2018-11-20T10:37:44.221Z,26.00
2018-11-20T10:38:44.204Z,27.80
2018-11-20T10:39:44.170Z,28.90
2018-11-20T10:40:44.143Z,31.60
2018-11-20T10:41:44.117Z,23.60
2018-11-20T10:42:44.090Z,30.60
2018-11-20T10:43:44.065Z,28.90
2018-11-20T10:44:44.036Z,30.50
2018-11-20T10:45:44.012Z,30.10
2018-11-20T10:46:44.117Z,29.70
2018-11-20T10:47:43.960Z,30.10
2018-11-20T10:48:43.930Z,22.20
2018-11-20T10:49:43.903Z,32.30
2018-11-20T10:50:43.883Z,28.00
2018-11-20T10:51:43.852Z,30.90
2018-11-20T10:52:43.914Z,29.10
2018-11-20T10:53:43.800Z,30.30
2018-11-20T10:54:43.772Z,30.10
2018-11-20T10:55:43.745Z,28.00
2018-11-20T10:56:43.723Z,25.80
2018-11-20T10:57:43.691Z,32.40
2018-11-20T10:58:43.668Z,29.80
2018-11-20T10:59:43.755Z,30.00
2018-11-20T11:00:43.612Z,26.80
2018-11-20T11:01:43.587Z,29.20
2018-11-20T11:02:43.571Z,28.50
2018-11-20T11:03:43.538Z,27.70
2018-11-20T11:04:43.525Z,30.40
2018-11-20T11:05:43.481Z,26.50
2018-11-20T11:06:43.637Z,26.50
2018-11-20T11:07:43.567Z,27.80
2018-11-20T11:08:43.405Z,27.00
2018-11-20T11:09:43.384Z,28.50
2018-11-20T11:10:43.359Z,28.80
2018-11-20T11:11:43.372Z,30.50
2018-11-20T11:12:43.485Z,27.70
2018-11-20T11:13:43.274Z,29.80
2018-11-20T11:14:43.284Z,29.20
2018-11-20T11:15:43.221Z,26.90
2018-11-20T11:16:43.197Z,32.50
2018-11-20T11:17:43.166Z,28.20
2018-11-20T11:18:43.147Z,27.80
2018-11-20T11:19:43.114Z,25.50
2018-11-20T11:20:43.217Z,29.10
2018-11-20T11:21:43.062Z,32.30
2018-11-20T11:22:43.041Z,30.10
2018-11-20T11:23:43.011Z,27.20
2018-11-20T11:24:42.985Z,29.10
2018-11-20T11:25:42.959Z,28.70
2018-11-20T11:26:42.948Z,26.70
2018-11-20T11:27:42.908Z,30.20
2018-11-20T11:28:42.880Z,32.40
2018-11-20T11:29:42.854Z,31.80
2018-11-20T11:30:42.841Z,24.90
2018-11-20T11:31:42.824Z,27.40
2018-11-20T11:32:42.776Z,29.70
2018-11-20T11:33:42.758Z,30.60
2018-11-20T11:34:42.732Z,28.40
2018-11-20T11:35:42.704Z,27.20
2018-11-20T11:36:42.670Z,28.20
2018-11-20T11:37:42.687Z,28.30
2018-11-20T11:38:42.621Z,29.70
2018-11-20T11:39:42.592Z,31.50
2018-11-20T11:40:42.579Z,31.20
2018-11-20T11:41:42.538Z,28.10
2018-11-20T11:42:42.525Z,24.20
2018-11-20T11:43:42.498Z,24.90
2018-11-20T11:44:42.458Z,31.80
2018-11-20T11:45:42.435Z,28.50
2018-11-20T11:46:42.410Z,28.40
2018-11-20T11:47:42.382Z,30.20
2018-11-20T11:48:42.354Z,30.50
2018-11-20T11:49:42.342Z,30.20
2018-11-20T11:50:42.301Z,31.10
2018-11-20T11:51:42.275Z,26.10
2018-11-20T11:52:42.265Z,29.00
2018-11-20T11:53:42.222Z,32.90
2018-11-20T11:54:42.195Z,29.30
2018-11-20T11:55:42.186Z,30.50
2018-11-20T11:56:42.145Z,30.10
2018-11-20T11:57:42.117Z,29.50
2018-11-20T11:58:42.092Z,29.50
2018-11-20T11:59:42.065Z,31.80
2018-11-20T12:00:42.037Z,33.30
2018-11-20T12:03:41.961Z,26.40
2018-11-20T12:04:41.949Z,30.20
2018-11-20T12:05:41.930Z,28.90
2018-11-20T12:06:41.881Z,31.90
2018-11-20T12:07:41.857Z,32.90
2018-11-20T12:08:41.830Z,33.50
2018-11-20T12:09:41.802Z,32.30
2018-11-20T12:10:41.879Z,30.30
2018-11-20T12:11:41.761Z,31.30
2018-11-20T12:12:41.721Z,30.40
2018-11-20T12:13:41.700Z,34.20
2018-11-20T12:14:41.679Z,30.50
2018-11-20T12:15:41.648Z,31.90
2018-11-20T12:16:41.617Z,28.40
2018-11-20T12:17:41.598Z,28.80
2018-11-20T12:18:41.572Z,28.90
2018-11-20T12:19:41.539Z,33.10
2018-11-20T12:20:43.395Z,30.10
2018-11-20T12:21:41.488Z,28.20
2018-11-20T12:22:41.462Z,25.30
2018-11-20T12:23:41.438Z,26.20
2018-11-20T12:24:41.414Z,29.90
2018-11-20T12:25:41.380Z,31.30
2018-11-20T12:26:41.469Z,27.60
2018-11-20T12:27:41.367Z,30.80
2018-11-20T12:28:41.309Z,30.70
2018-11-20T12:29:41.286Z,32.90
2018-11-20T12:30:41.250Z,30.50
2018-11-20T12:31:41.233Z,25.60
2018-11-20T12:32:41.220Z,26.60
2018-11-20T12:33:41.954Z,29.40
2018-11-20T12:34:41.145Z,29.00
2018-11-20T12:35:41.116Z,28.10
2018-11-20T12:36:41.088Z,31.70
2018-11-20T12:37:43.705Z,35.70
2018-11-20T12:38:41.423Z,31.20
2018-11-20T12:39:41.018Z,30.30
2018-11-20T12:40:40.984Z,27.30
2018-11-20T12:41:40.957Z,28.20
2018-11-20T12:42:41.154Z,28.30
2018-11-20T12:43:40.904Z,32.80
2018-11-20T12:44:40.877Z,27.40
2018-11-20T12:45:40.862Z,30.90
2018-11-20T12:46:40.825Z,31.80
2018-11-20T12:47:43.192Z,31.70
2018-11-20T12:48:40.774Z,33.60
2018-11-20T12:49:40.750Z,28.60
2018-11-20T12:50:40.720Z,29.00
2018-11-20T12:51:40.693Z,32.10
2018-11-20T12:52:41.304Z,28.50
2018-11-20T12:53:40.770Z,31.50